Time;durP1;ratioP1;P1;durP2;ratioP2;P2;SDS_P1;SDS_P2;PMS_P1;PMS_P2;Temp;Humidity;BMP_temperature;BMP_pressure;BME280_temperature;BME280_humidity;BME280_pressure;Samples;Min_cycle;Max_cycle;Signal;HPM_P1;HPM_P2
2023/09/20 17:08:01;;;;;;;;;11.33;9.67;;;;;21.58;65.79;99529.06;6329079;20;3509628;-58
2023/09/20 17:10:30;;;;;;;;;14.33;10.00;;;;;21.37;67.16;99541.28;6291518;20;3504436;-57
2023/09/20 17:12:59;;;;;;;;;9.00;9.00;;;;;21.37;67.55;99543.16;6340512;20;2757618;-58
2023/09/20 17:15:28;;;;;;;;;8.00;7.00;;;;;21.32;67.19;99543.66;6348266;20;2744065;-56
2023/09/20 17:17:57;;;;;;;;;7.33;5.33;;;;;21.12;68.20;99550.47;6339574;20;2739881;-59
2023/09/20 17:20:28;;;;;;;;;9.60;5.20;;;;;21.23;68.23;99553.72;6364348;20;2746088;-57
2023/09/20 17:22:58;;;;;;;;;7.60;2.60;;;;;20.85;69.17;99548.78;6328331;20;2734779;-58
2023/09/20 17:25:26;;;;;;;;;4.33;3.00;;;;;20.96;69.32;99546.66;6309335;20;2745116;-55
2023/09/20 17:27:55;;;;;;;;;4.00;4.00;;;;;20.86;70.42;99545.91;6339526;20;2754456;-59
2023/09/20 17:30:25;;;;;;;;;8.00;2.00;;;;;20.83;69.65;99549.81;6364788;20;2752379;-59
2023/09/20 17:32:55;;;;;;;;;6.60;4.00;;;;;20.72;70.20;99554.69;6334303;20;2751347;-58
2023/09/20 17:35:26;;;;;;;;;6.80;4.60;;;;;20.76;69.29;99558.81;6331475;20;2748202;-56
2023/09/20 17:37:57;;;;;;;;;5.60;5.60;;;;;20.57;70.86;99562.66;6329255;20;2752363;-58
2023/09/20 17:40:29;;;;;;;;;6.60;5.00;;;;;20.56;71.34;99560.94;6331724;20;2745085;-63
2023/09/20 17:42:59;;;;;;;;;12.00;4.00;;;;;20.33;71.99;99563.34;6329120;20;2786731;-58
2023/09/20 17:45:30;;;;;;;;;4.00;4.00;;;;;20.63;70.76;99569.34;6333827;20;2753439;-56
2023/09/20 17:47:59;;;;;;;;;9.20;4.00;;;;;20.53;72.05;99563.94;6331558;20;2763198;-59
2023/09/20 17:50:29;;;;;;;;;7.00;4.80;;;;;20.23;72.89;99566.16;6331974;20;2750286;-58
2023/09/20 17:52:59;;;;;;;;;8.40;3.80;;;;;20.26;73.26;99576.72;6332037;20;2747180;-58
2023/09/20 17:55:27;;;;;;;;;8.33;5.67;;;;;20.33;73.23;99566.91;6308067;20;2748196;-56
2023/09/20 17:57:57;;;;;;;;;4.60;4.00;;;;;20.33;72.81;99572.38;6366907;20;2756726;-57
2023/09/20 18:00:27;;;;;;;;;10.20;5.80;;;;;20.07;73.83;99576.94;6332580;20;2781554;-57
2023/09/20 18:02:56;;;;;;;;;6.67;5.00;;;;;20.14;74.03;99583.44;6308520;20;2744071;-57
2023/09/20 18:05:25;;;;;;;;;7.33;4.00;;;;;20.16;73.73;99575.97;6338534;20;2750335;-56
2023/09/20 18:07:53;;;;;;;;;8.00;5.00;;;;;19.93;74.47;99579.22;6341830;20;2752512;-58
2023/09/20 18:10:23;;;;;;;;;19.33;8.00;;;;;19.95;75.12;99579.03;6339790;20;2794073;-58
2023/09/20 18:12:53;;;;;;;;;24.67;10.33;;;;;19.60;76.47;99585.34;6331534;20;2831557;-58
2023/09/20 18:15:22;;;;;;;;;18.50;13.00;;;;;19.67;76.35;99572.84;6333640;20;2817090;-54
2023/09/20 18:17:51;;;;;;;;;19.00;15.00;;;;;19.40;77.25;99580.00;6296256;20;2487781;-55
2023/09/20 18:20:20;;;;;;;;;13.00;9.67;;;;;19.32;77.25;99574.47;6310696;20;2776325;-56
2023/09/20 18:22:52;;;;;;;;;7.00;5.20;;;;;19.39;77.85;99577.47;6341588;20;2745128;-57
2023/09/20 18:25:21;;;;;;;;;10.33;5.67;;;;;19.11;79.31;99580.19;6322207;20;2757659;-55
2023/09/20 18:27:53;;;;;;;;;5.00;4.00;;;;;19.20;78.99;99582.00;6314869;20;2738194;-57
2023/09/20 18:30:21;;;;;;;;;14.00;7.00;;;;;19.10;78.95;99583.09;6319309;20;2773583;-57
2023/09/20 18:32:55;;;;;;;;;14.67;9.33;;;;;18.97;78.95;99584.28;6320343;20;2779456;-57
2023/09/20 18:35:29;;;;;;;;;8.00;8.00;;;;;19.20;79.42;99578.44;6314671;20;2748402;-58
2023/09/20 18:37:58;;;;;;;;;12.33;7.00;;;;;19.23;78.78;99583.56;6313923;20;2766044;-55
2023/09/20 18:40:27;;;;;;;;;11.00;8.00;;;;;18.99;79.84;99584.16;6311845;20;2757111;-56
2023/09/20 18:43:01;;;;;;;;;13.00;6.67;;;;;18.65;80.69;99585.53;6321863;20;2773212;-55
2023/09/20 18:45:34;;;;;;;;;9.67;5.67;;;;;18.88;80.68;99585.19;6313556;20;2746174;-57
2023/09/20 18:48:05;;;;;;;;;6.60;5.40;;;;;18.99;79.51;99581.41;6338995;20;2735879;-57
2023/09/20 18:50:35;;;;;;;;;9.20;6.60;;;;;18.61;81.21;99580.53;6340197;20;2757740;-55
2023/09/20 18:53:04;;;;;;;;;7.00;7.00;;;;;18.86;80.33;99581.75;6283481;20;2744162;-58
2023/09/20 18:55:33;;;;;;;;;8.33;6.00;;;;;18.78;80.80;99577.06;6312355;20;2746129;-54
2023/09/20 18:58:02;;;;;;;;;8.20;6.80;;;;;18.49;82.14;99582.59;6339489;20;2742053;-57
2023/09/20 19:00:32;;;;;;;;;7.80;6.00;;;;;18.46;83.57;99582.88;6339043;20;2746162;-58
2023/09/20 19:03:03;;;;;;;;;8.67;7.00;;;;;18.60;83.36;99584.28;6282128;20;2733705;-56
2023/09/20 19:05:35;;;;;;;;;6.00;6.00;;;;;18.34;83.76;99575.91;6336432;20;2738402;-59
2023/09/20 19:08:06;;;;;;;;;5.00;5.00;;;;;18.14;84.89;99586.81;6306624;20;2734788;-57
2023/09/20 19:10:35;;;;;;;;;6.33;5.00;;;;;17.86;85.60;99587.69;6322433;20;2734930;-58
2023/09/20 19:13:05;;;;;;;;;10.00;8.00;;;;;17.69;86.84;99586.50;6313472;20;2764007;-58
2023/09/20 19:15:39;;;;;;;;;6.00;3.00;;;;;17.94;86.05;99587.84;6339574;20;2754654;-56
2023/09/20 19:18:08;;;;;;;;;6.67;6.00;;;;;17.57;86.81;99577.66;6282614;20;2737778;-56
2023/09/20 19:20:38;;;;;;;;;5.00;3.80;;;;;17.42;86.98;99579.06;6336345;20;2756598;-57
2023/09/20 19:23:10;;;;;;;;;6.00;5.00;;;;;17.14;87.66;99570.75;6307521;20;2750750;-54
2023/09/20 19:25:41;;;;;;;;;3.00;3.00;;;;;17.14;87.84;99576.19;6312827;20;2749211;-57
2023/09/20 19:28:10;;;;;;;;;2.00;2.00;;;;;17.22;87.59;99570.91;6318436;20;2741952;-56
2023/09/20 19:30:38;;;;;;;;;3.00;0.00;;;;;17.06;88.03;99565.13;6316628;20;2713766;-57
2023/09/20 19:33:06;;;;;;;;;2.00;2.00;;;;;17.02;88.18;99561.84;6295095;20;2748202;-57
2023/09/20 19:35:37;;;;;;;;;3.00;3.00;;;;;16.96;88.00;99569.69;6291190;20;2733638;-57
2023/09/20 19:38:05;;;;;;;;;4.00;4.00;;;;;16.90;87.73;99565.66;6290032;20;2756591;-53
2023/09/20 19:40:34;;;;;;;;;3.67;3.67;;;;;16.99;88.16;99555.84;6287620;20;2746131;-57
2023/09/20 19:43:02;;;;;;;;;5.00;3.00;;;;;17.37;86.94;99565.06;6307673;20;2746250;-55
2023/09/20 19:45:31;;;;;;;;;3.00;3.00;;;;;17.49;85.41;99558.50;6279942;20;2737803;-56
2023/09/20 19:48:01;;;;;;;;;5.60;4.00;;;;;17.77;84.37;99568.53;6330866;20;2746233;-57
2023/09/20 19:50:31;;;;;;;;;4.67;3.00;;;;;17.68;84.38;99569.38;6315145;20;2740910;-57
2023/09/20 19:53:00;;;;;;;;;5.67;2.33;;;;;17.75;84.89;99567.81;6312111;20;2731562;-57
2023/09/20 19:55:29;;;;;;;;;7.00;4.60;;;;;17.54;85.50;99556.22;6331197;20;2745144;-57
2023/09/20 19:58:07;;;;;;;;;5.33;4.00;;;;;17.06;86.98;99562.41;6312620;20;2756593;-55
2023/09/20 20:00:39;;;;;;;;;4.67;4.00;;;;;17.24;87.38;99557.19;6312191;20;2744074;-56
2023/09/20 20:03:11;;;;;;;;;4.00;4.00;;;;;16.88;88.21;99552.25;6309499;20;2754612;-55
2023/09/20 20:05:40;;;;;;;;;8.20;3.80;;;;;16.77;88.59;99559.59;6338218;20;2750297;-55
2023/09/20 20:08:11;;;;;;;;;11.00;7.00;;;;;16.50;89.64;99554.78;6312304;20;2764869;-57
2023/09/20 20:10:41;;;;;;;;;4.00;4.00;;;;;16.41;90.70;99554.59;6336044;20;2756545;-54
2023/09/20 20:13:09;;;;;;;;;6.00;3.50;;;;;16.45;90.13;99553.31;6283711;20;2744060;-57
2023/09/20 20:15:37;;;;;;;;;5.00;3.00;;;;;16.50;90.70;99546.66;6286754;20;2735711;-56
2023/09/20 20:18:07;;;;;;;;;4.00;4.00;;;;;16.84;88.63;99547.25;6308997;20;2744030;-55
2023/09/20 20:20:35;;;;;;;;;4.00;3.00;;;;;17.20;86.80;99551.19;6283709;20;2745125;-56
2023/09/20 20:23:04;;;;;;;;;5.60;4.00;;;;;16.70;88.42;99553.88;6308729;20;2751356;-55
2023/09/20 20:25:38;;;;;;;;;7.00;4.00;;;;;16.58;89.01;99547.69;6314429;20;2755448;-54
2023/09/20 20:28:14;;;;;;;;;4.00;3.00;;;;;16.18;90.40;99539.50;6316655;20;2744062;-56
2023/09/20 20:30:43;;;;;;;;;3.00;3.00;;;;;16.37;90.11;99541.44;6287474;20;2741934;-53
2023/09/20 20:33:12;;;;;;;;;3.00;3.00;;;;;16.32;89.50;99547.25;6286537;20;2737865;-54
2023/09/20 20:35:41;;;;;;;;;5.50;4.00;;;;;16.10;90.34;99542.03;6284094;20;2752365;-56
2023/09/20 20:38:12;;;;;;;;;6.00;4.50;;;;;15.93;91.18;99544.34;6288166;20;2750365;-57
2023/09/20 20:40:46;;;;;;;;;7.50;3.50;;;;;15.93;91.17;99538.94;6282194;20;2756532;-56
2023/09/20 20:43:15;;;;;;;;;4.50;2.50;;;;;16.29;89.50;99541.25;6289456;20;2745204;-55
2023/09/20 20:45:43;;;;;;;;;3.00;2.00;;;;;16.18;89.82;99536.78;6284697;20;2753388;-58
2023/09/20 20:48:12;;;;;;;;;4.00;3.00;;;;;15.74;91.54;99531.50;6277399;20;2746169;-54
2023/09/20 20:50:42;;;;;;;;;3.00;3.00;;;;;15.95;91.10;99539.63;6288171;20;2729482;-54
2023/09/20 20:53:15;;;;;;;;;4.00;3.00;;;;;15.77;91.35;99541.22;6286765;20;2735720;-57
2023/09/20 20:55:43;;;;;;;;;6.00;3.00;;;;;16.39;89.30;99544.88;6283309;20;2739845;-56
2023/09/20 20:58:13;;;;;;;;;4.50;4.50;;;;;16.49;87.52;99547.66;6284177;20;2750362;-57
2023/09/20 21:00:51;;;;;;;;;6.00;3.00;;;;;15.94;89.37;99545.19;6284178;20;2739882;-55
2023/09/20 21:03:19;;;;;;;;;3.00;3.00;;;;;15.37;91.34;99544.56;6280456;20;2733602;-56
2023/09/20 21:05:49;;;;;;;;;4.00;2.00;;;;;15.56;91.91;99539.34;6282960;20;2752480;-56
2023/09/20 21:08:20;;;;;;;;;4.00;4.00;;;;;15.27;92.85;99543.59;6285895;20;2738807;-53
2023/09/20 21:10:49;;;;;;;;;4.00;4.00;;;;;15.48;91.97;99535.53;6285052;20;2756683;-56
2023/09/20 21:13:17;;;;;;;;;3.50;3.00;;;;;15.64;92.04;99535.09;6285742;20;2755548;-54
2023/09/20 21:15:45;;;;;;;;;4.00;4.00;;;;;15.71;91.10;99536.34;6283752;20;2741572;-54
2023/09/20 21:18:18;;;;;;;;;5.00;3.00;;;;;15.89;90.53;99529.34;6280731;20;2753544;-56
2023/09/20 21:20:49;;;;;;;;;4.50;3.00;;;;;15.71;91.47;99529.06;6285353;20;2748237;-58
2023/09/20 21:23:18;;;;;;;;;2.00;2.00;;;;;15.97;90.96;99520.56;6288529;20;2732566;-55
2023/09/20 21:25:48;;;;;;;;;3.80;2.60;;;;;15.79;91.02;99520.28;6306679;20;2748283;-57
2023/09/20 21:28:16;;;;;;;;;4.50;4.50;;;;;15.35;91.95;99527.63;6313024;20;2749306;-57
2023/09/20 21:30:46;;;;;;;;;3.00;3.00;;;;;15.54;92.24;99526.94;6285684;20;2744040;-57
2023/09/20 21:33:15;;;;;;;;;4.00;2.50;;;;;15.22;92.73;99522.38;6284665;20;2735698;-54
2023/09/20 21:35:45;;;;;;;;;4.00;3.50;;;;;15.18;93.14;99530.88;6283053;20;2748225;-56
2023/09/20 21:38:13;;;;;;;;;5.00;4.00;;;;;15.06;93.73;99536.31;6284190;20;2747168;-54
2023/09/20 21:40:41;;;;;;;;;4.00;3.00;;;;;15.14;93.73;99532.97;6285503;20;2729473;-53
2023/09/20 21:43:09;;;;;;;;;3.00;2.00;;;;;15.26;92.79;99540.06;6287209;20;2744141;-54
2023/09/20 21:45:41;;;;;;;;;2.86;2.57;;;;;14.94;93.54;99534.63;6325688;20;3442982;-57
2023/09/20 21:48:10;;;;;;;;;4.50;3.50;;;;;15.51;92.88;99533.44;6313082;20;2756638;-56
2023/09/20 21:50:39;;;;;;;;;4.00;3.00;;;;;15.23;91.43;99521.38;6278895;20;2740909;-55
2023/09/20 21:53:11;;;;;;;;;2.50;2.50;;;;;15.31;91.37;99521.59;6286842;20;2748408;-54
2023/09/20 21:55:39;;;;;;;;;4.00;3.50;;;;;15.34;91.81;99526.75;6288473;20;2748150;-56
2023/09/20 21:58:06;;;;;;;;;3.00;3.00;;;;;15.08;93.25;99520.78;6291308;20;2747185;-55
2023/09/20 22:00:38;;;;;;;;;2.29;2.29;;;;;15.97;89.75;99526.81;6330197;20;3443000;-52
2023/09/20 22:03:07;;;;;;;;;3.00;3.00;;;;;15.73;90.46;99518.97;6319162;20;2740943;-53
2023/09/20 22:05:37;;;;;;;;;5.20;1.80;;;;;15.83;89.33;99513.63;6309949;20;2741978;-56
2023/09/20 22:08:08;;;;;;;;;3.50;3.00;;;;;15.35;90.85;99525.78;6320774;20;2731671;-56
2023/09/20 22:10:40;;;;;;;;;4.00;4.00;;;;;15.01;92.57;99519.59;6286971;20;2751334;-55
2023/09/20 22:13:09;;;;;;;;;3.00;3.00;;;;;14.95;92.87;99516.53;6289278;20;2736769;-53
2023/09/20 22:15:39;;;;;;;;;4.00;2.50;;;;;14.91;93.17;99515.94;6287332;20;2750289;-56
2023/09/20 22:18:18;;;;;;;;;7.00;4.00;;;;;14.66;94.29;99512.53;6290349;20;2752332;-52
2023/09/20 22:20:51;;;;;;;;;3.00;3.00;;;;;14.89;92.86;99517.91;6290154;20;2739937;-56
2023/09/20 22:23:22;;;;;;;;;7.00;4.00;;;;;14.77;94.09;99518.91;6289670;20;2752385;-56
2023/09/20 22:25:50;;;;;;;;;4.00;4.00;;;;;15.42;91.73;99515.28;6286227;20;2756618;-54
2023/09/20 22:28:18;;;;;;;;;4.50;4.50;;;;;15.04;91.56;99511.25;6286621;20;2751294;-55
2023/09/20 22:30:48;;;;;;;;;8.00;5.00;;;;;15.32;91.75;99512.50;6289117;20;2750409;-54
2023/09/20 22:33:16;;;;;;;;;4.00;3.00;;;;;15.00;92.01;99509.75;6287670;20;2747195;-53
2023/09/20 22:35:45;;;;;;;;;3.00;3.00;;;;;15.38;91.69;99516.53;6283179;20;2746252;-56
2023/09/20 22:38:30;;;;;;;;;3.50;3.50;;;;;14.57;94.13;99512.44;6288069;20;2754708;-58
2023/09/20 22:40:59;;;;;;;;;4.00;4.00;;;;;15.23;92.92;99507.00;6287436;20;2740879;-59
2023/09/20 22:43:28;;;;;;;;;4.00;3.00;;;;;15.68;90.49;99510.34;6288590;20;2748639;-57
2023/09/20 22:45:56;;;;;;;;;3.00;3.00;;;;;14.87;91.95;99509.91;6282531;20;2738889;-57
2023/09/20 22:48:24;;;;;;;;;4.00;4.00;;;;;14.98;92.61;99511.75;6287443;20;2750262;-57
2023/09/20 22:50:55;;;;;;;;;5.00;4.00;;;;;14.37;94.17;99511.28;6286135;20;2756699;-56
2023/09/20 22:53:23;;;;;;;;;4.00;4.00;;;;;14.54;94.38;99508.13;6288573;20;2748208;-59
2023/09/20 22:55:52;;;;;;;;;4.00;2.00;;;;;14.01;94.82;99510.56;6286179;20;2728412;-57
2023/09/20 22:58:22;;;;;;;;;5.20;4.00;;;;;15.00;92.90;99512.47;6307838;20;2754561;-57
2023/09/20 23:00:50;;;;;;;;;4.00;3.00;;;;;14.54;91.66;99507.28;6283414;20;2752389;-59
2023/09/20 23:03:24;;;;;;;;;4.50;3.00;;;;;14.24;93.48;99511.41;6288746;20;2744026;-59
2023/09/20 23:05:55;;;;;;;;;4.00;4.00;;;;;14.62;93.25;99500.25;6283643;20;2752331;-59
2023/09/20 23:08:25;;;;;;;;;5.00;3.50;;;;;14.56;92.63;99503.47;6286757;20;2757171;-59
2023/09/20 23:10:55;;;;;;;;;7.00;4.00;;;;;14.76;93.00;99500.97;6286224;20;2756684;-59
2023/09/20 23:13:25;;;;;;;;;3.50;3.50;;;;;14.68;91.91;99499.75;6287059;20;2750239;-58
2023/09/20 23:15:54;;;;;;;;;6.00;4.00;;;;;14.23;93.22;99509.69;6292263;20;2633658;-57
2023/09/20 23:18:29;;;;;;;;;5.00;3.00;;;;;15.06;91.93;99501.16;6284953;20;2744063;-59
2023/09/20 23:20:58;;;;;;;;;4.00;4.00;;;;;14.98;91.49;99500.06;6286001;20;2756528;-58
2023/09/20 23:23:26;;;;;;;;;5.00;4.00;;;;;14.82;91.84;99500.47;6285085;20;2748291;-59
2023/09/20 23:25:58;;;;;;;;;4.50;4.50;;;;;14.60;92.60;99502.22;6286158;20;2750309;-56
2023/09/20 23:28:26;;;;;;;;;2.50;2.50;;;;;14.18;94.56;99501.09;6290871;20;2730533;-57
2023/09/20 23:30:57;;;;;;;;;4.50;4.00;;;;;15.09;91.59;99503.59;6282793;20;2751465;-56
2023/09/20 23:33:34;;;;;;;;;6.50;4.00;;;;;14.79;91.58;99500.72;6286285;20;2756591;-59
2023/09/20 23:36:04;;;;;;;;;5.50;4.00;;;;;14.83;92.15;99497.66;6283419;20;2750418;-57
2023/09/20 23:38:37;;;;;;;;;5.00;4.00;;;;;14.00;94.13;99492.63;6284546;20;2753567;-59
2023/09/20 23:41:11;;;;;;;;;4.50;4.00;;;;;13.64;96.15;99494.53;6286135;20;2748359;-59
2023/09/20 23:43:50;;;;;;;;;4.50;4.00;;;;;14.06;92.93;99497.56;6287023;20;2756747;-55
2023/09/20 23:46:25;;;;;;;;;3.00;3.00;;;;;13.22;95.53;99491.41;6285330;20;2750355;-55
2023/09/20 23:48:54;;;;;;;;;4.00;4.00;;;;;14.13;94.01;99498.75;6289747;20;2749384;-57
2023/09/20 23:51:24;;;;;;;;;5.60;5.40;;;;;13.56;94.35;99495.13;6309273;20;2748218;-59
2023/09/20 23:53:52;;;;;;;;;4.00;4.00;;;;;14.09;93.83;99494.59;6316217;20;2746099;-57
2023/09/20 23:56:23;;;;;;;;;4.60;4.20;;;;;14.35;92.64;99497.03;6305629;20;2739995;-55
2023/09/20 23:58:51;;;;;;;;;8.00;6.50;;;;;14.32;92.57;99494.59;6316005;20;2746108;-57
